sensor_id;sensor_type;location;lat;lon;timestamp;P1;durP1;ratioP1;P2;durP2;ratioP2
8046;SDS011;74083;42.516;23.358;2024-01-25T00:01:43;2.03;;;1.67;;
8046;SDS011;74083;42.516;23.358;2024-01-25T00:04:30;1.60;;;1.50;;
8046;SDS011;74083;42.516;23.358;2024-01-25T00:07:15;1.60;;;1.50;;
8046;SDS011;74083;42.516;23.358;2024-01-25T00:10:01;1.53;;;1.43;;
8046;SDS011;74083;42.516;23.358;2024-01-25T00:12:51;1.47;;;1.37;;
8046;SDS011;74083;42.516;23.358;2024-01-25T00:15:37;1.40;;;1.30;;
8046;SDS011;74083;42.516;23.358;2024-01-25T00:18:22;1.60;;;1.50;;
8046;SDS011;74083;42.516;23.358;2024-01-25T00:21:09;1.40;;;1.30;;
8046;SDS011;74083;42.516;23.358;2024-01-25T00:23:55;1.30;;;1.20;;
8046;SDS011;74083;42.516;23.358;2024-01-25T00:26:40;1.27;;;1.17;;
8046;SDS011;74083;42.516;23.358;2024-01-25T00:29:25;1.13;;;1.10;;
8046;SDS011;74083;42.516;23.358;2024-01-25T00:32:11;1.40;;;1.30;;
8046;SDS011;74083;42.516;23.358;2024-01-25T00:34:57;1.27;;;1.20;;
8046;SDS011;74083;42.516;23.358;2024-01-25T00:37:44;1.77;;;1.30;;
8046;SDS011;74083;42.516;23.358;2024-01-25T00:40:31;1.20;;;1.10;;
8046;SDS011;74083;42.516;23.358;2024-01-25T00:43:18;1.40;;;1.30;;
8046;SDS011;74083;42.516;23.358;2024-01-25T00:46:03;1.20;;;1.10;;
8046;SDS011;74083;42.516;23.358;2024-01-25T00:48:50;1.20;;;1.20;;
8046;SDS011;74083;42.516;23.358;2024-01-25T00:51:36;2.67;;;1.20;;
8046;SDS011;74083;42.516;23.358;2024-01-25T00:54:24;1.40;;;1.30;;
8046;SDS011;74083;42.516;23.358;2024-01-25T00:57:11;1.30;;;1.20;;
8046;SDS011;74083;42.516;23.358;2024-01-25T00:59:57;1.10;;;1.10;;
8046;SDS011;74083;42.516;23.358;2024-01-25T01:02:44;1.10;;;1.10;;
8046;SDS011;74083;42.516;23.358;2024-01-25T01:05:30;1.00;;;1.00;;
8046;SDS011;74083;42.516;23.358;2024-01-25T01:08:16;1.13;;;1.13;;
8046;SDS011;74083;42.516;23.358;2024-01-25T01:11:04;1.10;;;1.10;;
8046;SDS011;74083;42.516;23.358;2024-01-25T01:13:49;1.10;;;1.10;;
8046;SDS011;74083;42.516;23.358;2024-01-25T01:16:35;1.10;;;1.10;;
8046;SDS011;74083;42.516;23.358;2024-01-25T01:19:21;1.00;;;1.00;;
8046;SDS011;74083;42.516;23.358;2024-01-25T01:22:06;1.00;;;1.00;;
8046;SDS011;74083;42.516;23.358;2024-01-25T01:24:52;1.20;;;1.10;;
8046;SDS011;74083;42.516;23.358;2024-01-25T01:27:39;1.13;;;1.13;;
8046;SDS011;74083;42.516;23.358;2024-01-25T01:30:25;1.10;;;1.10;;
8046;SDS011;74083;42.516;23.358;2024-01-25T01:33:10;1.00;;;1.00;;
8046;SDS011;74083;42.516;23.358;2024-01-25T01:35:56;1.00;;;1.00;;
8046;SDS011;74083;42.516;23.358;2024-01-25T01:38:41;1.10;;;1.10;;
8046;SDS011;74083;42.516;23.358;2024-01-25T01:41:26;1.43;;;1.20;;
8046;SDS011;74083;42.516;23.358;2024-01-25T01:44:13;1.00;;;1.00;;
8046;SDS011;74083;42.516;23.358;2024-01-25T01:46:59;1.13;;;1.10;;
8046;SDS011;74083;42.516;23.358;2024-01-25T01:49:44;1.30;;;1.20;;
8046;SDS011;74083;42.516;23.358;2024-01-25T01:52:30;2.27;;;1.10;;
8046;SDS011;74083;42.516;23.358;2024-01-25T01:55:16;2.20;;;1.20;;
8046;SDS011;74083;42.516;23.358;2024-01-25T01:58:02;1.10;;;1.10;;
8046;SDS011;74083;42.516;23.358;2024-01-25T02:00:49;0.97;;;0.97;;
8046;SDS011;74083;42.516;23.358;2024-01-25T02:03:35;1.10;;;1.10;;
8046;SDS011;74083;42.516;23.358;2024-01-25T02:06:21;1.10;;;1.10;;
8046;SDS011;74083;42.516;23.358;2024-01-25T02:09:09;1.10;;;1.00;;
8046;SDS011;74083;42.516;23.358;2024-01-25T02:12:01;1.20;;;1.20;;
8046;SDS011;74083;42.516;23.358;2024-01-25T02:14:46;1.00;;;1.00;;
8046;SDS011;74083;42.516;23.358;2024-01-25T02:17:33;1.10;;;1.10;;
8046;SDS011;74083;42.516;23.358;2024-01-25T02:20:20;1.00;;;1.00;;
8046;SDS011;74083;42.516;23.358;2024-01-25T02:23:08;1.00;;;1.00;;
8046;SDS011;74083;42.516;23.358;2024-01-25T02:25:53;1.23;;;1.20;;
8046;SDS011;74083;42.516;23.358;2024-01-25T02:28:39;1.17;;;1.10;;
8046;SDS011;74083;42.516;23.358;2024-01-25T02:31:25;1.30;;;1.20;;
8046;SDS011;74083;42.516;23.358;2024-01-25T02:34:10;1.40;;;1.30;;
8046;SDS011;74083;42.516;23.358;2024-01-25T02:36:56;1.20;;;1.10;;
8046;SDS011;74083;42.516;23.358;2024-01-25T02:39:43;1.00;;;1.00;;
8046;SDS011;74083;42.516;23.358;2024-01-25T02:42:30;1.13;;;1.13;;
8046;SDS011;74083;42.516;23.358;2024-01-25T02:45:15;1.00;;;1.00;;
8046;SDS011;74083;42.516;23.358;2024-01-25T02:48:01;1.07;;;1.07;;
8046;SDS011;74083;42.516;23.358;2024-01-25T02:50:47;1.23;;;1.13;;
8046;SDS011;74083;42.516;23.358;2024-01-25T02:53:32;1.00;;;1.00;;
8046;SDS011;74083;42.516;23.358;2024-01-25T02:56:19;1.10;;;1.10;;
8046;SDS011;74083;42.516;23.358;2024-01-25T02:59:05;1.03;;;1.03;;
8046;SDS011;74083;42.516;23.358;2024-01-25T03:01:50;1.10;;;1.10;;
8046;SDS011;74083;42.516;23.358;2024-01-25T03:04:36;1.10;;;1.10;;
8046;SDS011;74083;42.516;23.358;2024-01-25T03:07:21;1.67;;;1.10;;
8046;SDS011;74083;42.516;23.358;2024-01-25T03:10:07;1.10;;;1.10;;
8046;SDS011;74083;42.516;23.358;2024-01-25T03:12:55;1.10;;;1.10;;
8046;SDS011;74083;42.516;23.358;2024-01-25T03:15:41;1.10;;;1.10;;
8046;SDS011;74083;42.516;23.358;2024-01-25T03:18:27;1.10;;;1.10;;
8046;SDS011;74083;42.516;23.358;2024-01-25T03:21:13;1.20;;;1.20;;
8046;SDS011;74083;42.516;23.358;2024-01-25T03:23:59;3.60;;;1.30;;
8046;SDS011;74083;42.516;23.358;2024-01-25T03:26:44;1.30;;;1.30;;
8046;SDS011;74083;42.516;23.358;2024-01-25T03:29:32;1.20;;;1.20;;
8046;SDS011;74083;42.516;23.358;2024-01-25T03:32:17;1.30;;;1.20;;
8046;SDS011;74083;42.516;23.358;2024-01-25T03:35:03;1.30;;;1.30;;
8046;SDS011;74083;42.516;23.358;2024-01-25T03:37:49;1.10;;;1.10;;
8046;SDS011;74083;42.516;23.358;2024-01-25T03:40:35;1.10;;;1.10;;
8046;SDS011;74083;42.516;23.358;2024-01-25T03:43:20;1.30;;;1.20;;
8046;SDS011;74083;42.516;23.358;2024-01-25T03:46:08;1.10;;;1.10;;
8046;SDS011;74083;42.516;23.358;2024-01-25T03:48:53;1.10;;;1.10;;
8046;SDS011;74083;42.516;23.358;2024-01-25T03:51:39;1.10;;;1.10;;
8046;SDS011;74083;42.516;23.358;2024-01-25T03:54:24;1.00;;;1.00;;
8046;SDS011;74083;42.516;23.358;2024-01-25T03:57:09;1.17;;;1.10;;
8046;SDS011;74083;42.516;23.358;2024-01-25T03:59:55;2.30;;;1.10;;
8046;SDS011;74083;42.516;23.358;2024-01-25T04:02:42;1.00;;;1.00;;
8046;SDS011;74083;42.516;23.358;2024-01-25T04:05:27;1.10;;;1.10;;
8046;SDS011;74083;42.516;23.358;2024-01-25T04:08:13;4.10;;;1.20;;
8046;SDS011;74083;42.516;23.358;2024-01-25T04:10:58;1.20;;;1.20;;
8046;SDS011;74083;42.516;23.358;2024-01-25T04:13:44;1.30;;;1.20;;
8046;SDS011;74083;42.516;23.358;2024-01-25T04:16:29;1.00;;;1.00;;
8046;SDS011;74083;42.516;23.358;2024-01-25T04:19:16;1.20;;;1.10;;
8046;SDS011;74083;42.516;23.358;2024-01-25T04:22:02;1.10;;;1.10;;
8046;SDS011;74083;42.516;23.358;2024-01-25T04:24:48;1.10;;;1.10;;
8046;SDS011;74083;42.516;23.358;2024-01-25T04:27:36;1.00;;;1.00;;
8046;SDS011;74083;42.516;23.358;2024-01-25T04:30:22;1.27;;;1.10;;
8046;SDS011;74083;42.516;23.358;2024-01-25T04:33:07;1.20;;;1.13;;
8046;SDS011;74083;42.516;23.358;2024-01-25T04:35:54;1.30;;;1.20;;
8046;SDS011;74083;42.516;23.358;2024-01-25T04:38:40;1.00;;;0.90;;
8046;SDS011;74083;42.516;23.358;2024-01-25T04:41:25;1.13;;;1.03;;
8046;SDS011;74083;42.516;23.358;2024-01-25T04:44:11;1.17;;;1.10;;
8046;SDS011;74083;42.516;23.358;2024-01-25T04:46:56;1.57;;;1.20;;
8046;SDS011;74083;42.516;23.358;2024-01-25T04:49:42;1.00;;;1.00;;
8046;SDS011;74083;42.516;23.358;2024-01-25T04:52:29;1.83;;;1.10;;
8046;SDS011;74083;42.516;23.358;2024-01-25T04:55:14;1.20;;;1.10;;
8046;SDS011;74083;42.516;23.358;2024-01-25T04:58:00;1.03;;;1.03;;
8046;SDS011;74083;42.516;23.358;2024-01-25T05:00:46;3.47;;;1.13;;
8046;SDS011;74083;42.516;23.358;2024-01-25T05:03:31;1.10;;;1.10;;
8046;SDS011;74083;42.516;23.358;2024-01-25T05:06:17;1.20;;;1.10;;
8046;SDS011;74083;42.516;23.358;2024-01-25T05:09:04;1.20;;;1.10;;
8046;SDS011;74083;42.516;23.358;2024-01-25T05:11:52;1.20;;;1.10;;
8046;SDS011;74083;42.516;23.358;2024-01-25T05:14:42;1.33;;;1.23;;
8046;SDS011;74083;42.516;23.358;2024-01-25T05:17:27;1.30;;;1.20;;
8046;SDS011;74083;42.516;23.358;2024-01-25T05:20:13;1.73;;;1.50;;
8046;SDS011;74083;42.516;23.358;2024-01-25T05:23:01;1.10;;;1.10;;
8046;SDS011;74083;42.516;23.358;2024-01-25T05:25:49;1.30;;;1.20;;
8046;SDS011;74083;42.516;23.358;2024-01-25T05:28:34;3.63;;;1.30;;
8046;SDS011;74083;42.516;23.358;2024-01-25T05:31:20;2.73;;;1.40;;
8046;SDS011;74083;42.516;23.358;2024-01-25T05:34:06;3.03;;;1.50;;
8046;SDS011;74083;42.516;23.358;2024-01-25T05:36:51;1.90;;;1.30;;
8046;SDS011;74083;42.516;23.358;2024-01-25T05:39:37;1.50;;;1.40;;
8046;SDS011;74083;42.516;23.358;2024-01-25T05:42:24;2.67;;;1.50;;
8046;SDS011;74083;42.516;23.358;2024-01-25T05:45:10;3.87;;;1.40;;
8046;SDS011;74083;42.516;23.358;2024-01-25T05:47:55;3.20;;;1.67;;
8046;SDS011;74083;42.516;23.358;2024-01-25T05:50:41;3.50;;;1.60;;
8046;SDS011;74083;42.516;23.358;2024-01-25T05:53:27;1.50;;;1.40;;
8046;SDS011;74083;42.516;23.358;2024-01-25T05:56:12;2.23;;;1.57;;
8046;SDS011;74083;42.516;23.358;2024-01-25T05:58:59;2.00;;;1.50;;
8046;SDS011;74083;42.516;23.358;2024-01-25T06:01:45;2.87;;;1.50;;
8046;SDS011;74083;42.516;23.358;2024-01-25T06:04:30;2.13;;;1.50;;
8046;SDS011;74083;42.516;23.358;2024-01-25T06:07:16;1.97;;;1.50;;
8046;SDS011;74083;42.516;23.358;2024-01-25T06:10:01;2.63;;;1.60;;
8046;SDS011;74083;42.516;23.358;2024-01-25T06:12:47;3.53;;;1.70;;
8046;SDS011;74083;42.516;23.358;2024-01-25T06:15:34;3.20;;;2.00;;
8046;SDS011;74083;42.516;23.358;2024-01-25T06:18:21;1.83;;;1.50;;
8046;SDS011;74083;42.516;23.358;2024-01-25T06:21:07;4.47;;;1.80;;
8046;SDS011;74083;42.516;23.358;2024-01-25T06:23:52;3.20;;;1.70;;
8046;SDS011;74083;42.516;23.358;2024-01-25T06:26:37;3.13;;;1.73;;
8046;SDS011;74083;42.516;23.358;2024-01-25T06:29:23;3.10;;;1.80;;
8046;SDS011;74083;42.516;23.358;2024-01-25T06:32:09;2.90;;;1.50;;
8046;SDS011;74083;42.516;23.358;2024-01-25T06:34:56;2.73;;;1.70;;
8046;SDS011;74083;42.516;23.358;2024-01-25T06:37:41;2.43;;;1.80;;
8046;SDS011;74083;42.516;23.358;2024-01-25T06:40:27;2.40;;;1.57;;
8046;SDS011;74083;42.516;23.358;2024-01-25T06:43:12;5.83;;;2.00;;
8046;SDS011;74083;42.516;23.358;2024-01-25T06:45:58;6.17;;;2.20;;
8046;SDS011;74083;42.516;23.358;2024-01-25T06:48:44;3.07;;;1.60;;
8046;SDS011;74083;42.516;23.358;2024-01-25T06:51:30;5.73;;;2.40;;
8046;SDS011;74083;42.516;23.358;2024-01-25T06:54:16;2.93;;;1.87;;
8046;SDS011;74083;42.516;23.358;2024-01-25T06:57:01;3.10;;;1.83;;
8046;SDS011;74083;42.516;23.358;2024-01-25T06:59:47;2.87;;;1.70;;
8046;SDS011;74083;42.516;23.358;2024-01-25T07:02:32;4.30;;;1.80;;
8046;SDS011;74083;42.516;23.358;2024-01-25T07:05:19;2.77;;;1.50;;
8046;SDS011;74083;42.516;23.358;2024-01-25T07:08:05;3.33;;;1.57;;
8046;SDS011;74083;42.516;23.358;2024-01-25T07:10:52;2.53;;;1.80;;
8046;SDS011;74083;42.516;23.358;2024-01-25T07:13:40;2.97;;;1.60;;
8046;SDS011;74083;42.516;23.358;2024-01-25T07:16:26;3.40;;;1.93;;
8046;SDS011;74083;42.516;23.358;2024-01-25T07:19:14;3.27;;;1.90;;
8046;SDS011;74083;42.516;23.358;2024-01-25T07:22:00;3.73;;;1.73;;
8046;SDS011;74083;42.516;23.358;2024-01-25T07:24:46;3.57;;;1.70;;
8046;SDS011;74083;42.516;23.358;2024-01-25T07:27:32;3.53;;;1.87;;
8046;SDS011;74083;42.516;23.358;2024-01-25T07:30:17;2.80;;;1.83;;
8046;SDS011;74083;42.516;23.358;2024-01-25T07:33:03;2.93;;;1.90;;
8046;SDS011;74083;42.516;23.358;2024-01-25T07:35:49;3.07;;;1.70;;
8046;SDS011;74083;42.516;23.358;2024-01-25T07:38:37;5.73;;;1.90;;
8046;SDS011;74083;42.516;23.358;2024-01-25T07:41:22;4.20;;;1.67;;
8046;SDS011;74083;42.516;23.358;2024-01-25T07:44:07;3.93;;;1.70;;
8046;SDS011;74083;42.516;23.358;2024-01-25T07:46:53;5.00;;;2.13;;
8046;SDS011;74083;42.516;23.358;2024-01-25T07:49:38;2.47;;;1.70;;
8046;SDS011;74083;42.516;23.358;2024-01-25T07:52:25;4.03;;;1.60;;
8046;SDS011;74083;42.516;23.358;2024-01-25T07:55:12;3.83;;;2.00;;
8046;SDS011;74083;42.516;23.358;2024-01-25T07:57:57;4.87;;;2.00;;
8046;SDS011;74083;42.516;23.358;2024-01-25T08:00:43;3.43;;;1.80;;
8046;SDS011;74083;42.516;23.358;2024-01-25T08:03:29;5.03;;;1.90;;
8046;SDS011;74083;42.516;23.358;2024-01-25T08:06:14;5.00;;;1.67;;
8046;SDS011;74083;42.516;23.358;2024-01-25T08:09:00;3.63;;;1.73;;
8046;SDS011;74083;42.516;23.358;2024-01-25T08:11:47;2.80;;;1.80;;
8046;SDS011;74083;42.516;23.358;2024-01-25T08:14:33;2.90;;;1.63;;
8046;SDS011;74083;42.516;23.358;2024-01-25T08:17:18;3.60;;;1.97;;
8046;SDS011;74083;42.516;23.358;2024-01-25T08:20:04;2.13;;;1.87;;
8046;SDS011;74083;42.516;23.358;2024-01-25T08:22:51;3.67;;;2.00;;
8046;SDS011;74083;42.516;23.358;2024-01-25T08:25:36;5.80;;;2.10;;
8046;SDS011;74083;42.516;23.358;2024-01-25T08:28:24;3.07;;;1.73;;
8046;SDS011;74083;42.516;23.358;2024-01-25T08:31:09;2.70;;;1.70;;
8046;SDS011;74083;42.516;23.358;2024-01-25T08:33:55;4.67;;;1.87;;
8046;SDS011;74083;42.516;23.358;2024-01-25T08:36:41;2.37;;;1.40;;
8046;SDS011;74083;42.516;23.358;2024-01-25T08:39:27;5.30;;;1.90;;
8046;SDS011;74083;42.516;23.358;2024-01-25T08:42:12;2.30;;;1.70;;
8046;SDS011;74083;42.516;23.358;2024-01-25T08:44:59;1.90;;;1.70;;
8046;SDS011;74083;42.516;23.358;2024-01-25T08:47:44;2.53;;;1.80;;
8046;SDS011;74083;42.516;23.358;2024-01-25T08:50:30;1.77;;;1.57;;
8046;SDS011;74083;42.516;23.358;2024-01-25T08:53:17;4.03;;;2.00;;
8046;SDS011;74083;42.516;23.358;2024-01-25T08:56:02;3.17;;;1.60;;
8046;SDS011;74083;42.516;23.358;2024-01-25T08:58:48;5.90;;;2.00;;
8046;SDS011;74083;42.516;23.358;2024-01-25T09:01:35;3.60;;;1.80;;
8046;SDS011;74083;42.516;23.358;2024-01-25T09:04:21;2.83;;;1.90;;
8046;SDS011;74083;42.516;23.358;2024-01-25T09:07:07;5.33;;;2.13;;
8046;SDS011;74083;42.516;23.358;2024-01-25T09:09:52;3.47;;;2.10;;
8046;SDS011;74083;42.516;23.358;2024-01-25T09:12:37;5.97;;;2.10;;
8046;SDS011;74083;42.516;23.358;2024-01-25T09:15:23;3.60;;;1.87;;
8046;SDS011;74083;42.516;23.358;2024-01-25T09:18:10;4.70;;;2.30;;
8046;SDS011;74083;42.516;23.358;2024-01-25T09:20:56;5.97;;;2.00;;
8046;SDS011;74083;42.516;23.358;2024-01-25T09:23:41;5.20;;;2.37;;
8046;SDS011;74083;42.516;23.358;2024-01-25T09:26:26;4.33;;;2.23;;
8046;SDS011;74083;42.516;23.358;2024-01-25T09:29:11;4.80;;;2.10;;
8046;SDS011;74083;42.516;23.358;2024-01-25T09:31:57;5.53;;;2.60;;
8046;SDS011;74083;42.516;23.358;2024-01-25T09:34:44;3.43;;;2.00;;
8046;SDS011;74083;42.516;23.358;2024-01-25T09:37:30;5.77;;;2.47;;
8046;SDS011;74083;42.516;23.358;2024-01-25T09:40:15;4.27;;;2.10;;
8046;SDS011;74083;42.516;23.358;2024-01-25T09:43:01;5.57;;;2.90;;
8046;SDS011;74083;42.516;23.358;2024-01-25T09:45:47;4.83;;;2.47;;
8046;SDS011;74083;42.516;23.358;2024-01-25T09:48:38;4.60;;;2.40;;
8046;SDS011;74083;42.516;23.358;2024-01-25T09:51:29;4.33;;;2.30;;
8046;SDS011;74083;42.516;23.358;2024-01-25T09:54:23;3.87;;;2.20;;
8046;SDS011;74083;42.516;23.358;2024-01-25T09:57:13;5.67;;;2.30;;
8046;SDS011;74083;42.516;23.358;2024-01-25T10:00:00;5.03;;;2.50;;
8046;SDS011;74083;42.516;23.358;2024-01-25T10:02:47;4.17;;;2.30;;
8046;SDS011;74083;42.516;23.358;2024-01-25T10:05:33;5.27;;;2.27;;
8046;SDS011;74083;42.516;23.358;2024-01-25T10:08:20;3.27;;;2.40;;
8046;SDS011;74083;42.516;23.358;2024-01-25T10:11:07;3.67;;;2.20;;
8046;SDS011;74083;42.516;23.358;2024-01-25T10:13:55;4.37;;;2.10;;
8046;SDS011;74083;42.516;23.358;2024-01-25T10:16:41;3.83;;;2.17;;
8046;SDS011;74083;42.516;23.358;2024-01-25T10:19:27;4.47;;;2.50;;
8046;SDS011;74083;42.516;23.358;2024-01-25T10:22:13;5.97;;;2.43;;
8046;SDS011;74083;42.516;23.358;2024-01-25T10:24:59;2.83;;;1.90;;
8046;SDS011;74083;42.516;23.358;2024-01-25T10:27:45;3.40;;;2.40;;
8046;SDS011;74083;42.516;23.358;2024-01-25T10:30:32;5.13;;;2.50;;
8046;SDS011;74083;42.516;23.358;2024-01-25T10:33:19;5.73;;;2.57;;
8046;SDS011;74083;42.516;23.358;2024-01-25T10:36:05;3.50;;;2.40;;
8046;SDS011;74083;42.516;23.358;2024-01-25T10:38:54;3.83;;;2.27;;
8046;SDS011;74083;42.516;23.358;2024-01-25T10:41:42;5.27;;;2.40;;
8046;SDS011;74083;42.516;23.358;2024-01-25T10:44:33;3.70;;;2.30;;
8046;SDS011;74083;42.516;23.358;2024-01-25T10:47:19;5.97;;;2.70;;
8046;SDS011;74083;42.516;23.358;2024-01-25T10:50:05;5.33;;;2.30;;
8046;SDS011;74083;42.516;23.358;2024-01-25T10:52:52;5.47;;;2.40;;
8046;SDS011;74083;42.516;23.358;2024-01-25T10:55:39;5.67;;;2.40;;
8046;SDS011;74083;42.516;23.358;2024-01-25T10:58:26;3.00;;;2.20;;
8046;SDS011;74083;42.516;23.358;2024-01-25T11:01:16;2.50;;;1.83;;
8046;SDS011;74083;42.516;23.358;2024-01-25T11:04:03;3.23;;;2.03;;
8046;SDS011;74083;42.516;23.358;2024-01-25T11:07:04;4.23;;;2.60;;
8046;SDS011;74083;42.516;23.358;2024-01-25T11:09:51;3.57;;;2.10;;
8046;SDS011;74083;42.516;23.358;2024-01-25T11:12:46;5.40;;;2.50;;
8046;SDS011;74083;42.516;23.358;2024-01-25T11:15:35;3.57;;;2.17;;
8046;SDS011;74083;42.516;23.358;2024-01-25T11:18:24;4.77;;;2.10;;
8046;SDS011;74083;42.516;23.358;2024-01-25T11:21:10;4.13;;;2.30;;
8046;SDS011;74083;42.516;23.358;2024-01-25T11:24:00;4.90;;;2.13;;
8046;SDS011;74083;42.516;23.358;2024-01-25T11:26:46;9.73;;;2.40;;
8046;SDS011;74083;42.516;23.358;2024-01-25T11:29:33;5.00;;;2.30;;
8046;SDS011;74083;42.516;23.358;2024-01-25T11:32:20;3.47;;;2.00;;
8046;SDS011;74083;42.516;23.358;2024-01-25T11:35:07;2.67;;;1.97;;
8046;SDS011;74083;42.516;23.358;2024-01-25T11:37:54;4.83;;;2.50;;
8046;SDS011;74083;42.516;23.358;2024-01-25T11:40:40;3.70;;;2.30;;
8046;SDS011;74083;42.516;23.358;2024-01-25T11:43:26;4.50;;;2.27;;
8046;SDS011;74083;42.516;23.358;2024-01-25T11:46:11;3.10;;;1.90;;
8046;SDS011;74083;42.516;23.358;2024-01-25T11:48:59;4.50;;;2.50;;
8046;SDS011;74083;42.516;23.358;2024-01-25T11:51:45;2.93;;;2.20;;
8046;SDS011;74083;42.516;23.358;2024-01-25T11:54:31;4.77;;;2.60;;
8046;SDS011;74083;42.516;23.358;2024-01-25T11:57:16;3.43;;;2.17;;
8046;SDS011;74083;42.516;23.358;2024-01-25T12:00:02;7.67;;;2.67;;
8046;SDS011;74083;42.516;23.358;2024-01-25T12:02:50;3.27;;;2.00;;
8046;SDS011;74083;42.516;23.358;2024-01-25T12:05:37;3.63;;;2.20;;
8046;SDS011;74083;42.516;23.358;2024-01-25T12:08:23;6.97;;;2.50;;
8046;SDS011;74083;42.516;23.358;2024-01-25T12:11:09;4.83;;;2.30;;
8046;SDS011;74083;42.516;23.358;2024-01-25T12:13:55;2.30;;;2.00;;
8046;SDS011;74083;42.516;23.358;2024-01-25T12:16:41;4.93;;;2.43;;
8046;SDS011;74083;42.516;23.358;2024-01-25T12:19:27;4.10;;;2.40;;
8046;SDS011;74083;42.516;23.358;2024-01-25T12:22:21;6.33;;;2.60;;
8046;SDS011;74083;42.516;23.358;2024-01-25T12:25:07;4.70;;;2.23;;
8046;SDS011;74083;42.516;23.358;2024-01-25T12:27:57;5.40;;;2.40;;
8046;SDS011;74083;42.516;23.358;2024-01-25T12:30:42;6.47;;;2.50;;
8046;SDS011;74083;42.516;23.358;2024-01-25T12:33:28;3.80;;;2.07;;
8046;SDS011;74083;42.516;23.358;2024-01-25T12:36:14;3.27;;;2.00;;
8046;SDS011;74083;42.516;23.358;2024-01-25T12:39:01;5.10;;;2.60;;
8046;SDS011;74083;42.516;23.358;2024-01-25T12:41:46;7.63;;;2.53;;
8046;SDS011;74083;42.516;23.358;2024-01-25T12:44:32;4.60;;;2.63;;
8046;SDS011;74083;42.516;23.358;2024-01-25T12:47:17;6.10;;;2.30;;
8046;SDS011;74083;42.516;23.358;2024-01-25T12:50:03;5.17;;;2.40;;
8046;SDS011;74083;42.516;23.358;2024-01-25T12:52:49;5.00;;;2.43;;
8046;SDS011;74083;42.516;23.358;2024-01-25T12:55:36;3.80;;;2.73;;
8046;SDS011;74083;42.516;23.358;2024-01-25T12:58:22;5.60;;;2.40;;
8046;SDS011;74083;42.516;23.358;2024-01-25T13:01:07;4.30;;;2.13;;
8046;SDS011;74083;42.516;23.358;2024-01-25T13:03:53;4.23;;;2.27;;
8046;SDS011;74083;42.516;23.358;2024-01-25T13:06:38;3.90;;;2.17;;
8046;SDS011;74083;42.516;23.358;2024-01-25T13:09:23;5.00;;;2.17;;
8046;SDS011;74083;42.516;23.358;2024-01-25T13:12:11;5.87;;;2.30;;
8046;SDS011;74083;42.516;23.358;2024-01-25T13:14:57;5.63;;;2.50;;
8046;SDS011;74083;42.516;23.358;2024-01-25T13:17:43;5.13;;;2.40;;
8046;SDS011;74083;42.516;23.358;2024-01-25T13:20:28;3.80;;;2.30;;
8046;SDS011;74083;42.516;23.358;2024-01-25T13:23:13;6.47;;;2.57;;
8046;SDS011;74083;42.516;23.358;2024-01-25T13:25:59;4.10;;;2.63;;
8046;SDS011;74083;42.516;23.358;2024-01-25T13:28:46;4.80;;;2.37;;
8046;SDS011;74083;42.516;23.358;2024-01-25T13:31:32;5.03;;;2.13;;
8046;SDS011;74083;42.516;23.358;2024-01-25T13:34:17;4.67;;;2.03;;
8046;SDS011;74083;42.516;23.358;2024-01-25T13:37:02;4.03;;;2.13;;
8046;SDS011;74083;42.516;23.358;2024-01-25T13:39:48;4.07;;;2.40;;
8046;SDS011;74083;42.516;23.358;2024-01-25T13:42:33;2.60;;;2.00;;
8046;SDS011;74083;42.516;23.358;2024-01-25T13:45:20;6.13;;;2.30;;
8046;SDS011;74083;42.516;23.358;2024-01-25T13:48:06;8.27;;;2.27;;
8046;SDS011;74083;42.516;23.358;2024-01-25T13:50:52;4.03;;;2.00;;
8046;SDS011;74083;42.516;23.358;2024-01-25T13:53:37;4.43;;;2.20;;
8046;SDS011;74083;42.516;23.358;2024-01-25T13:56:23;3.83;;;2.17;;
8046;SDS011;74083;42.516;23.358;2024-01-25T13:59:09;5.97;;;2.50;;
8046;SDS011;74083;42.516;23.358;2024-01-25T14:01:56;5.40;;;2.37;;
8046;SDS011;74083;42.516;23.358;2024-01-25T14:04:42;3.20;;;2.13;;
8046;SDS011;74083;42.516;23.358;2024-01-25T14:07:27;8.23;;;2.40;;
8046;SDS011;74083;42.516;23.358;2024-01-25T14:10:13;4.63;;;2.23;;
8046;SDS011;74083;42.516;23.358;2024-01-25T14:12:58;10.83;;;2.40;;
8046;SDS011;74083;42.516;23.358;2024-01-25T14:15:44;3.50;;;2.20;;
8046;SDS011;74083;42.516;23.358;2024-01-25T14:18:35;3.70;;;2.10;;
8046;SDS011;74083;42.516;23.358;2024-01-25T14:21:21;5.17;;;2.20;;
8046;SDS011;74083;42.516;23.358;2024-01-25T14:24:07;3.13;;;2.10;;
8046;SDS011;74083;42.516;23.358;2024-01-25T14:26:52;6.17;;;2.40;;
8046;SDS011;74083;42.516;23.358;2024-01-25T14:29:37;5.80;;;2.20;;
8046;SDS011;74083;42.516;23.358;2024-01-25T14:32:23;6.13;;;2.50;;
8046;SDS011;74083;42.516;23.358;2024-01-25T14:35:09;5.53;;;2.80;;
8046;SDS011;74083;42.516;23.358;2024-01-25T14:37:55;5.63;;;2.40;;
8046;SDS011;74083;42.516;23.358;2024-01-25T14:40:41;5.23;;;2.30;;
8046;SDS011;74083;42.516;23.358;2024-01-25T14:43:26;5.87;;;2.13;;
8046;SDS011;74083;42.516;23.358;2024-01-25T14:46:12;3.87;;;2.63;;
8046;SDS011;74083;42.516;23.358;2024-01-25T14:48:57;4.93;;;2.40;;
8046;SDS011;74083;42.516;23.358;2024-01-25T14:51:44;5.07;;;2.27;;
8046;SDS011;74083;42.516;23.358;2024-01-25T14:54:30;5.23;;;2.40;;
8046;SDS011;74083;42.516;23.358;2024-01-25T14:57:16;6.30;;;2.43;;
8046;SDS011;74083;42.516;23.358;2024-01-25T15:00:01;4.47;;;2.17;;
8046;SDS011;74083;42.516;23.358;2024-01-25T15:02:49;5.80;;;2.50;;
8046;SDS011;74083;42.516;23.358;2024-01-25T15:05:34;3.30;;;2.20;;
8046;SDS011;74083;42.516;23.358;2024-01-25T15:08:22;5.83;;;2.30;;
8046;SDS011;74083;42.516;23.358;2024-01-25T15:11:07;3.77;;;2.10;;
8046;SDS011;74083;42.516;23.358;2024-01-25T15:13:53;5.57;;;2.60;;
8046;SDS011;74083;42.516;23.358;2024-01-25T15:16:38;5.10;;;2.57;;
8046;SDS011;74083;42.516;23.358;2024-01-25T15:19:24;5.17;;;3.00;;
8046;SDS011;74083;42.516;23.358;2024-01-25T15:22:09;6.20;;;2.67;;
8046;SDS011;74083;42.516;23.358;2024-01-25T15:24:56;4.40;;;2.43;;
8046;SDS011;74083;42.516;23.358;2024-01-25T15:27:42;5.60;;;2.80;;
8046;SDS011;74083;42.516;23.358;2024-01-25T15:30:27;5.43;;;2.83;;
8046;SDS011;74083;42.516;23.358;2024-01-25T15:33:12;3.67;;;2.50;;
8046;SDS011;74083;42.516;23.358;2024-01-25T15:35:58;8.70;;;2.77;;
8046;SDS011;74083;42.516;23.358;2024-01-25T15:38:43;6.60;;;3.10;;
8046;SDS011;74083;42.516;23.358;2024-01-25T15:41:30;7.67;;;3.53;;
8046;SDS011;74083;42.516;23.358;2024-01-25T15:44:16;4.73;;;2.80;;
8046;SDS011;74083;42.516;23.358;2024-01-25T15:47:01;4.43;;;2.90;;
8046;SDS011;74083;42.516;23.358;2024-01-25T15:49:47;6.67;;;3.50;;
8046;SDS011;74083;42.516;23.358;2024-01-25T15:52:32;6.17;;;3.07;;
8046;SDS011;74083;42.516;23.358;2024-01-25T15:55:18;4.47;;;3.03;;
8046;SDS011;74083;42.516;23.358;2024-01-25T15:58:05;4.07;;;2.93;;
8046;SDS011;74083;42.516;23.358;2024-01-25T16:00:51;4.13;;;3.10;;
8046;SDS011;74083;42.516;23.358;2024-01-25T16:03:36;4.47;;;2.87;;
8046;SDS011;74083;42.516;23.358;2024-01-25T16:06:22;3.40;;;3.00;;
8046;SDS011;74083;42.516;23.358;2024-01-25T16:09:08;4.33;;;2.70;;
8046;SDS011;74083;42.516;23.358;2024-01-25T16:11:53;4.40;;;2.60;;
8046;SDS011;74083;42.516;23.358;2024-01-25T16:14:40;6.07;;;3.10;;
8046;SDS011;74083;42.516;23.358;2024-01-25T16:17:25;5.70;;;3.10;;
8046;SDS011;74083;42.516;23.358;2024-01-25T16:20:11;4.43;;;2.67;;
8046;SDS011;74083;42.516;23.358;2024-01-25T16:22:59;3.27;;;2.53;;
8046;SDS011;74083;42.516;23.358;2024-01-25T16:25:44;5.80;;;2.77;;
8046;SDS011;74083;42.516;23.358;2024-01-25T16:28:29;4.87;;;2.90;;
8046;SDS011;74083;42.516;23.358;2024-01-25T16:31:16;4.10;;;2.73;;
8046;SDS011;74083;42.516;23.358;2024-01-25T16:34:02;3.73;;;2.60;;
8046;SDS011;74083;42.516;23.358;2024-01-25T16:36:47;3.27;;;2.53;;
8046;SDS011;74083;42.516;23.358;2024-01-25T16:39:33;5.27;;;2.70;;
8046;SDS011;74083;42.516;23.358;2024-01-25T16:42:19;2.93;;;2.57;;